Time;durP1;ratioP1;P1;durP2;ratioP2;P2;SDS_P1;SDS_P2;PMS_P1;PMS_P2;Temp;Humidity;BMP_temperature;BMP_pressure;BME280_temperature;BME280_humidity;BME280_pressure;Samples;Min_cycle;Max_cycle;Signal;HPM_P1;HPM_P2
2022/01/18 00:00:36;;;;;;;20.85;10.07;;;;;;;;;;5067995;28;20111;-73
2022/01/18 00:03:02;;;;;;;22.58;10.82;;;;;;;;;;5068144;28;20048;-73
2022/01/18 00:05:28;;;;;;;24.70;11.55;;;;;;;;;;5068545;28;20063;-73
2022/01/18 00:07:54;;;;;;;25.35;10.38;;;;;;;;;;5068398;28;20422;-73
2022/01/18 00:10:23;;;;;;;24.40;11.23;;;;;;;;;;5068897;28;20082;-73
2022/01/18 00:13:09;;;;;;;23.70;10.48;;;;;;;;;;5068736;28;20045;-73
2022/01/18 00:23:15;;;;;;;26.48;11.27;;;;;;;;;;5048512;28;20041;-72
2022/01/18 00:25:45;;;;;;;27.90;11.95;;;;;;;;;;5047746;28;20514;-72
2022/01/18 00:28:11;;;;;;;26.02;11.00;;;;;;;;;;5047781;28;20064;-72
2022/01/18 00:35:57;;;;;;;24.45;11.25;;;;;;;;;;5042344;28;20029;-73
2022/01/18 00:38:32;;;;;;;25.35;12.32;;;;;;;;;;5068072;28;20056;-72
2022/01/18 00:40:59;;;;;;;25.95;12.38;;;;;;;;;;5069136;28;20068;-72
2022/01/18 00:43:25;;;;;;;23.52;11.80;;;;;;;;;;5068373;28;20055;-72
2022/01/18 00:45:51;;;;;;;23.98;11.68;;;;;;;;;;5067356;28;20556;-72
2022/01/18 00:48:18;;;;;;;22.85;11.05;;;;;;;;;;5068111;28;20072;-72
2022/01/18 00:50:45;;;;;;;21.77;10.57;;;;;;;;;;5067089;28;20052;-72
2022/01/18 00:53:15;;;;;;;25.90;10.93;;;;;;;;;;5067598;28;20056;-73
2022/01/18 00:56:03;;;;;;;22.45;9.93;;;;;;;;;;5067316;28;20390;-73
2022/01/18 00:58:29;;;;;;;24.50;10.10;;;;;;;;;;5067032;28;20051;-74
2022/01/18 01:00:55;;;;;;;23.25;9.40;;;;;;;;;;5068037;28;20375;-74
2022/01/18 01:03:21;;;;;;;24.08;9.75;;;;;;;;;;5068244;28;20090;-72
2022/01/18 01:05:47;;;;;;;22.27;9.88;;;;;;;;;;5067674;28;20677;-72
2022/01/18 01:08:13;;;;;;;21.17;9.55;;;;;;;;;;5067625;28;20136;-72
2022/01/18 01:10:39;;;;;;;22.65;10.02;;;;;;;;;;5049892;28;20044;-72
2022/01/18 01:13:06;;;;;;;23.48;8.75;;;;;;;;;;5067386;28;20402;-72
2022/01/18 01:15:37;;;;;;;22.23;9.18;;;;;;;;;;5049386;28;20036;-72
2022/01/18 01:37:15;;;;;;;18.83;7.82;;;;;;;;;;5050436;28;20455;-73
2022/01/18 01:44:56;;;;;;;21.80;7.03;;;;;;;;;;5047449;28;20032;-73
2022/01/18 01:47:33;;;;;;;19.55;7.15;;;;;;;;;;5028617;28;20512;-73
2022/01/18 01:50:00;;;;;;;21.05;6.72;;;;;;;;;;5046589;28;20053;-72
2022/01/18 01:52:26;;;;;;;17.10;6.60;;;;;;;;;;5046077;28;20053;-72
2022/01/18 01:54:55;;;;;;;23.35;6.32;;;;;;;;;;5066192;28;20486;-72
2022/01/18 01:57:22;;;;;;;17.00;6.40;;;;;;;;;;5066142;28;20043;-72
2022/01/18 01:59:48;;;;;;;24.50;6.50;;;;;;;;;;5066606;28;20055;-72
2022/01/18 02:02:14;;;;;;;22.48;6.72;;;;;;;;;;5049043;28;20040;-72
2022/01/18 02:04:40;;;;;;;17.80;6.75;;;;;;;;;;5067007;28;20052;-72
2022/01/18 02:07:06;;;;;;;22.48;7.03;;;;;;;;;;5048291;28;20123;-72
2022/01/18 02:09:33;;;;;;;19.10;7.10;;;;;;;;;;5066296;28;20044;-74
2022/01/18 02:12:00;;;;;;;32.40;7.25;;;;;;;;;;5066460;28;20059;-73
2022/01/18 02:14:28;;;;;;;19.17;6.60;;;;;;;;;;5066206;28;20063;-73
2022/01/18 02:22:24;;;;;;;17.30;6.68;;;;;;;;;;5083491;28;20040;-73
2022/01/18 02:24:50;;;;;;;21.08;7.18;;;;;;;;;;5086027;28;20040;-73
2022/01/18 02:27:17;;;;;;;27.58;7.82;;;;;;;;;;5086448;28;20044;-73
2022/01/18 02:29:43;;;;;;;21.63;7.88;;;;;;;;;;5066506;28;20041;-73
2022/01/18 02:32:10;;;;;;;23.33;7.78;;;;;;;;;;5065626;28;20049;-73
2022/01/18 02:34:36;;;;;;;25.67;8.00;;;;;;;;;;5065814;28;20044;-73
2022/01/18 02:37:04;;;;;;;31.00;8.70;;;;;;;;;;5067622;28;20064;-73
2022/01/18 02:39:30;;;;;;;20.73;8.70;;;;;;;;;;5068639;28;20040;-73
2022/01/18 02:41:59;;;;;;;29.23;10.13;;;;;;;;;;5068863;28;20486;-73
2022/01/18 02:44:26;;;;;;;23.92;10.07;;;;;;;;;;5068882;28;20486;-73
2022/01/18 02:46:53;;;;;;;25.33;10.88;;;;;;;;;;5067180;28;20048;-73
2022/01/18 02:49:19;;;;;;;21.63;10.02;;;;;;;;;;5068087;28;20056;-73
2022/01/18 02:51:46;;;;;;;24.15;10.63;;;;;;;;;;5068354;28;20048;-72
2022/01/18 02:54:14;;;;;;;22.40;11.00;;;;;;;;;;5069150;28;20409;-72
2022/01/18 02:56:49;;;;;;;21.25;9.95;;;;;;;;;;5067669;28;20435;-72
2022/01/18 02:59:33;;;;;;;28.98;11.70;;;;;;;;;;5067458;28;20071;-73
2022/01/18 03:04:48;;;;;;;29.52;12.13;;;;;;;;;;5072885;28;20040;-73
2022/01/18 03:07:15;;;;;;;28.35;12.35;;;;;;;;;;5067648;28;20052;-72
2022/01/18 03:09:41;;;;;;;30.40;13.43;;;;;;;;;;5068065;28;20363;-72
2022/01/18 03:12:09;;;;;;;23.55;11.60;;;;;;;;;;5065787;28;20040;-73
2022/01/18 03:14:35;;;;;;;29.23;12.85;;;;;;;;;;5066083;28;20049;-72
2022/01/18 03:17:01;;;;;;;34.15;12.52;;;;;;;;;;5065713;28;20041;-73
2022/01/18 03:19:27;;;;;;;23.42;11.25;;;;;;;;;;5065427;28;20052;-73
2022/01/18 03:21:56;;;;;;;22.08;12.02;;;;;;;;;;5076958;28;20550;-73
2022/01/18 03:29:36;;;;;;;23.63;9.98;;;;;;;;;;5093002;28;20059;-73
2022/01/18 03:32:04;;;;;;;25.27;10.55;;;;;;;;;;5089135;28;20040;-73
2022/01/18 03:34:29;;;;;;;29.23;12.27;;;;;;;;;;5088296;28;20059;-72
2022/01/18 03:36:56;;;;;;;24.98;11.55;;;;;;;;;;5089350;28;20040;-73
2022/01/18 03:39:22;;;;;;;24.38;11.70;;;;;;;;;;5088682;28;20048;-73
2022/01/18 03:41:54;;;;;;;33.78;12.10;;;;;;;;;;5089955;28;20040;-72
2022/01/18 03:44:22;;;;;;;22.27;11.70;;;;;;;;;;5088999;28;20048;-72
2022/01/18 03:46:53;;;;;;;26.25;11.23;;;;;;;;;;5088792;28;20040;-73
2022/01/18 03:49:22;;;;;;;28.85;11.23;;;;;;;;;;5076424;28;20040;-72
2022/01/18 03:51:49;;;;;;;28.33;10.90;;;;;;;;;;5068637;28;20492;-72
2022/01/18 03:54:21;;;;;;;28.00;10.45;;;;;;;;;;5069003;28;20059;-72
2022/01/18 03:56:47;;;;;;;20.80;9.40;;;;;;;;;;5068558;28;20557;-72
2022/01/18 03:59:12;;;;;;;20.33;8.38;;;;;;;;;;5050680;28;20129;-72
2022/01/18 04:01:38;;;;;;;28.20;8.88;;;;;;;;;;5068326;28;20426;-73
2022/01/18 04:04:04;;;;;;;23.90;8.40;;;;;;;;;;5068755;28;20028;-73
2022/01/18 04:06:30;;;;;;;18.08;8.55;;;;;;;;;;5068497;28;20055;-73
2022/01/18 04:08:56;;;;;;;24.33;8.70;;;;;;;;;;5068244;28;20044;-73
2022/01/18 04:11:22;;;;;;;25.60;10.52;;;;;;;;;;5068080;28;20139;-72
2022/01/18 04:13:48;;;;;;;26.48;13.40;;;;;;;;;;5050108;28;20051;-72
2022/01/18 04:16:15;;;;;;;30.90;14.80;;;;;;;;;;5067962;28;20036;-72
2022/01/18 04:19:20;;;;;;;30.63;14.68;;;;;;;;;;5067495;28;20052;-72
2022/01/18 04:27:11;;;;;;;37.70;19.55;;;;;;;;;;5090274;28;20036;-72
2022/01/18 04:29:37;;;;;;;34.60;16.25;;;;;;;;;;5066981;28;20048;-72
2022/01/18 04:32:03;;;;;;;37.72;18.92;;;;;;;;;;5067769;28;20076;-72
2022/01/18 04:34:29;;;;;;;38.40;21.65;;;;;;;;;;5068598;28;20037;-73
2022/01/18 04:36:55;;;;;;;25.38;14.60;;;;;;;;;;5068150;28;20739;-72
2022/01/18 04:39:21;;;;;;;38.95;21.15;;;;;;;;;;5067728;28;20052;-72
2022/01/18 04:41:47;;;;;;;29.75;14.48;;;;;;;;;;5067107;28;20137;-72
2022/01/18 04:49:42;;;;;;;24.27;12.48;;;;;;;;;;5068799;28;20040;-73
2022/01/18 04:52:10;;;;;;;22.27;12.70;;;;;;;;;;5068574;28;20028;-73
2022/01/18 04:54:39;;;;;;;24.73;13.65;;;;;;;;;;5067868;28;20059;-72
2022/01/18 04:59:31;;;;;;;26.55;13.70;;;;;;;;;;5067525;28;20041;-73
2022/01/18 05:01:57;;;;;;;25.50;12.95;;;;;;;;;;5068693;28;20028;-72
2022/01/18 05:04:23;;;;;;;25.45;12.20;;;;;;;;;;5067639;28;20038;-72
2022/01/18 05:06:51;;;;;;;30.08;12.98;;;;;;;;;;5066435;28;20044;-73
2022/01/18 05:09:17;;;;;;;20.98;10.30;;;;;;;;;;5066926;28;20047;-73
2022/01/18 05:12:05;;;;;;;24.45;8.82;;;;;;;;;;5066857;28;20040;-73
2022/01/18 05:14:34;;;;;;;23.90;7.38;;;;;;;;;;5066420;28;20071;-73
2022/01/18 05:17:12;;;;;;;23.65;8.15;;;;;;;;;;5065405;28;20048;-72
2022/01/18 05:25:00;;;;;;;23.17;11.07;;;;;;;;;;5078061;28;20051;-72
2022/01/18 05:27:26;;;;;;;28.33;12.20;;;;;;;;;;5086331;28;20048;-73
2022/01/18 05:29:52;;;;;;;27.30;11.57;;;;;;;;;;5087378;28;20040;-73
2022/01/18 05:32:18;;;;;;;32.42;12.43;;;;;;;;;;5075160;28;20505;-73
2022/01/18 05:34:48;;;;;;;31.65;13.27;;;;;;;;;;5066277;28;20072;-73
2022/01/18 05:37:14;;;;;;;31.52;12.38;;;;;;;;;;5004556;28;20476;-73
2022/01/18 05:39:40;;;;;;;27.40;11.70;;;;;;;;;;5002280;28;20041;-74
2022/01/18 05:42:06;;;;;;;23.52;11.35;;;;;;;;;;5002502;28;20062;-74
2022/01/18 05:44:32;;;;;;;35.08;12.05;;;;;;;;;;5008663;28;21304;-72
2022/01/18 05:46:58;;;;;;;35.55;13.80;;;;;;;;;;5022275;28;20141;-74
2022/01/18 05:49:24;;;;;;;26.30;12.27;;;;;;;;;;5016911;28;20144;-71
2022/01/18 05:51:50;;;;;;;27.52;13.05;;;;;;;;;;5015180;28;20135;-72
2022/01/18 05:54:16;;;;;;;29.27;12.50;;;;;;;;;;5011972;28;20058;-74
2022/01/18 05:56:42;;;;;;;28.80;11.93;;;;;;;;;;5010577;28;20061;-73
2022/01/18 05:59:10;;;;;;;24.80;11.75;;;;;;;;;;5020754;28;20041;-73
2022/01/18 06:01:46;;;;;;;27.85;11.85;;;;;;;;;;5017543;28;20812;-73
2022/01/18 06:04:19;;;;;;;28.52;11.68;;;;;;;;;;5012597;28;20526;-73
2022/01/18 06:06:53;;;;;;;22.30;10.52;;;;;;;;;;5023694;28;20515;-73
2022/01/18 06:09:21;;;;;;;20.27;9.00;;;;;;;;;;5015349;28;20534;-73
2022/01/18 06:11:47;;;;;;;17.85;7.70;;;;;;;;;;5014758;28;20056;-73
2022/01/18 06:14:13;;;;;;;26.75;8.48;;;;;;;;;;5022716;28;20034;-73
2022/01/18 06:16:39;;;;;;;24.92;7.25;;;;;;;;;;5010663;28;20050;-73
2022/01/18 06:19:05;;;;;;;22.25;7.03;;;;;;;;;;5018413;28;20173;-74
2022/01/18 06:21:31;;;;;;;31.98;11.77;;;;;;;;;;5006785;28;20034;-74
2022/01/18 06:23:57;;;;;;;22.67;9.10;;;;;;;;;;5009463;28;20164;-74
2022/01/18 06:26:23;;;;;;;34.17;12.93;;;;;;;;;;5019130;28;20303;-76
2022/01/18 06:28:49;;;;;;;35.70;12.02;;;;;;;;;;5010444;28;20042;-76
2022/01/18 06:31:14;;;;;;;31.42;15.90;;;;;;;;;;4996582;28;20041;-74
2022/01/18 06:33:40;;;;;;;43.25;25.83;;;;;;;;;;5010591;28;20125;-74
2022/01/18 06:36:06;;;;;;;32.85;19.20;;;;;;;;;;5000295;28;20589;-74
2022/01/18 06:38:32;;;;;;;31.80;17.55;;;;;;;;;;5010924;28;20060;-74
2022/01/18 06:40:58;;;;;;;38.17;18.80;;;;;;;;;;5004010;28;20038;-74
2022/01/18 06:43:24;;;;;;;39.90;24.65;;;;;;;;;;5017194;28;20380;-73
2022/01/18 06:45:50;;;;;;;29.02;15.98;;;;;;;;;;5013915;28;20066;-74
2022/01/18 06:48:16;;;;;;;32.10;15.10;;;;;;;;;;5020525;28;20042;-75
2022/01/18 06:50:42;;;;;;;35.08;16.55;;;;;;;;;;5015430;28;20047;-75
2022/01/18 06:53:08;;;;;;;25.13;13.45;;;;;;;;;;5012423;28;20053;-78
2022/01/18 06:55:34;;;;;;;34.60;17.27;;;;;;;;;;5003531;28;20077;-77
2022/01/18 06:58:01;;;;;;;27.52;14.43;;;;;;;;;;5013410;28;20663;-77
2022/01/18 07:00:27;;;;;;;32.13;15.35;;;;;;;;;;5018029;28;20678;-78
2022/01/18 07:02:53;;;;;;;29.13;14.55;;;;;;;;;;5022234;28;20053;-77
2022/01/18 07:05:19;;;;;;;29.50;16.45;;;;;;;;;;5014635;28;20022;-76
2022/01/18 07:07:47;;;;;;;36.30;16.88;;;;;;;;;;5009243;28;20080;-77
2022/01/18 07:10:14;;;;;;;34.35;14.48;;;;;;;;;;5010798;28;20407;-75
2022/01/18 07:12:40;;;;;;;35.13;16.05;;;;;;;;;;5009155;28;20464;-75
2022/01/18 07:15:07;;;;;;;34.03;16.10;;;;;;;;;;5011768;28;20502;-76
2022/01/18 07:17:40;;;;;;;33.40;15.48;;;;;;;;;;5008668;28;20057;-73
2022/01/18 07:20:08;;;;;;;27.98;14.82;;;;;;;;;;5015594;28;20068;-73
2022/01/18 07:22:34;;;;;;;28.08;13.43;;;;;;;;;;5015681;28;20102;-74
2022/01/18 07:25:02;;;;;;;31.33;15.70;;;;;;;;;;5021645;28;20056;-75
2022/01/18 07:27:28;;;;;;;34.17;15.55;;;;;;;;;;5014321;28;20049;-77
2022/01/18 07:29:54;;;;;;;35.55;16.30;;;;;;;;;;5022736;28;20068;-76
2022/01/18 07:32:20;;;;;;;31.35;16.85;;;;;;;;;;5022139;28;20097;-77
2022/01/18 07:34:54;;;;;;;31.38;15.45;;;;;;;;;;5018725;28;20037;-76
2022/01/18 07:37:21;;;;;;;33.17;15.45;;;;;;;;;;5014467;28;20507;-76
2022/01/18 07:39:49;;;;;;;30.88;16.63;;;;;;;;;;5023750;28;20056;-77
2022/01/18 07:42:19;;;;;;;30.77;16.30;;;;;;;;;;5024163;28;20057;-76
2022/01/18 07:44:46;;;;;;;29.43;14.93;;;;;;;;;;5012442;28;20432;-75
2022/01/18 07:47:12;;;;;;;36.97;17.60;;;;;;;;;;5019032;28;20439;-73
2022/01/18 07:49:39;;;;;;;47.20;25.50;;;;;;;;;;5010330;28;20056;-76
2022/01/18 07:52:05;;;;;;;32.03;16.30;;;;;;;;;;5024676;28;20372;-77
2022/01/18 07:54:31;;;;;;;32.53;15.80;;;;;;;;;;5016775;28;20413;-75
2022/01/18 07:56:57;;;;;;;33.47;16.17;;;;;;;;;;5019755;28;20504;-77
2022/01/18 07:59:23;;;;;;;34.22;16.98;;;;;;;;;;5009939;28;20034;-77
2022/01/18 08:01:49;;;;;;;33.00;15.65;;;;;;;;;;5011502;28;20038;-75
2022/01/18 08:04:15;;;;;;;27.08;14.10;;;;;;;;;;5008491;28;20133;-75
2022/01/18 08:06:41;;;;;;;28.17;14.00;;;;;;;;;;5018037;28;20376;-74
2022/01/18 08:09:07;;;;;;;26.98;14.55;;;;;;;;;;5015939;28;20121;-74
2022/01/18 08:11:33;;;;;;;28.98;14.50;;;;;;;;;;5022637;28;20438;-75
2022/01/18 08:14:00;;;;;;;31.88;16.85;;;;;;;;;;5010383;28;20025;-77
2022/01/18 08:18:54;;;;;;;29.85;15.07;;;;;;;;;;5011908;28;20522;-76
2022/01/18 08:21:21;;;;;;;30.15;15.32;;;;;;;;;;5015357;28;20088;-74
2022/01/18 08:23:46;;;;;;;30.90;15.32;;;;;;;;;;5014240;28;20503;-76
2022/01/18 08:26:12;;;;;;;30.35;15.57;;;;;;;;;;5014151;28;20045;-75
2022/01/18 08:28:39;;;;;;;64.15;28.70;;;;;;;;;;5019742;28;20053;-74
2022/01/18 08:31:05;;;;;;;36.22;18.25;;;;;;;;;;5012937;28;20045;-74
2022/01/18 08:33:32;;;;;;;32.25;16.25;;;;;;;;;;5010467;28;20498;-75
2022/01/18 08:36:03;;;;;;;29.45;14.70;;;;;;;;;;5008744;28;20076;-74
2022/01/18 08:38:30;;;;;;;32.90;16.98;;;;;;;;;;5008615;28;20038;-74
2022/01/18 08:40:59;;;;;;;30.23;16.13;;;;;;;;;;5009166;28;20563;-72
2022/01/18 08:43:26;;;;;;;25.92;13.68;;;;;;;;;;5009607;28;20510;-73
2022/01/18 08:45:52;;;;;;;26.85;14.30;;;;;;;;;;5007579;28;20053;-73
2022/01/18 08:48:19;;;;;;;29.38;15.07;;;;;;;;;;5008163;28;20045;-73
2022/01/18 08:50:45;;;;;;;27.83;14.88;;;;;;;;;;5008411;28;20046;-73
2022/01/18 08:53:11;;;;;;;25.90;14.40;;;;;;;;;;5008479;28;20073;-72
2022/01/18 08:55:36;;;;;;;28.00;13.73;;;;;;;;;;5007342;28;20455;-72
2022/01/18 08:58:03;;;;;;;27.25;13.63;;;;;;;;;;5005057;28;20069;-73
2022/01/18 09:00:30;;;;;;;34.78;14.65;;;;;;;;;;5003260;28;20054;-73
2022/01/18 09:02:58;;;;;;;38.30;16.58;;;;;;;;;;5015142;28;20053;-74
2022/01/18 09:05:24;;;;;;;37.28;16.77;;;;;;;;;;5020674;28;20033;-74
2022/01/18 09:07:52;;;;;;;36.28;15.35;;;;;;;;;;5007081;28;20053;-73
2022/01/18 09:10:19;;;;;;;32.75;15.15;;;;;;;;;;5005517;28;20042;-74
2022/01/18 09:12:45;;;;;;;35.33;15.48;;;;;;;;;;5006201;28;20061;-74
2022/01/18 09:15:12;;;;;;;28.45;13.05;;;;;;;;;;4998467;28;20046;-74
2022/01/18 09:17:40;;;;;;;27.02;12.73;;;;;;;;;;4994090;28;20040;-74
2022/01/18 09:20:09;;;;;;;26.48;11.45;;;;;;;;;;4986699;28;20046;-74
2022/01/18 09:22:41;;;;;;;36.08;15.30;;;;;;;;;;5007785;28;20034;-73
2022/01/18 09:25:11;;;;;;;34.50;13.73;;;;;;;;;;5007518;28;20065;-74
2022/01/18 09:27:37;;;;;;;34.88;12.55;;;;;;;;;;5007855;28;20052;-74
2022/01/18 09:30:05;;;;;;;31.67;13.75;;;;;;;;;;5007063;28;20060;-74
2022/01/18 09:32:31;;;;;;;27.50;13.48;;;;;;;;;;5006456;28;20061;-74
2022/01/18 09:34:57;;;;;;;30.48;14.20;;;;;;;;;;5004744;28;20070;-74
2022/01/18 09:37:23;;;;;;;29.70;12.80;;;;;;;;;;5006765;28;20122;-74
2022/01/18 09:39:48;;;;;;;26.38;12.13;;;;;;;;;;5006564;28;20480;-74
2022/01/18 09:42:17;;;;;;;30.52;13.20;;;;;;;;;;5006901;28;20068;-74
2022/01/18 09:44:45;;;;;;;23.15;12.05;;;;;;;;;;5007164;28;20500;-74
2022/01/18 09:47:11;;;;;;;31.38;12.93;;;;;;;;;;5008312;28;20052;-73
2022/01/18 09:49:37;;;;;;;22.27;11.45;;;;;;;;;;5007731;28;20128;-74
2022/01/18 09:52:03;;;;;;;28.02;13.52;;;;;;;;;;5007751;28;20049;-73
2022/01/18 09:54:29;;;;;;;29.17;13.32;;;;;;;;;;5005798;28;20056;-73
2022/01/18 09:56:56;;;;;;;24.48;12.30;;;;;;;;;;5008025;28;20480;-73
2022/01/18 09:59:22;;;;;;;28.25;12.25;;;;;;;;;;5008835;28;20058;-73
2022/01/18 10:01:48;;;;;;;28.25;14.15;;;;;;;;;;5007510;28;20598;-73
2022/01/18 10:04:20;;;;;;;28.98;12.43;;;;;;;;;;5007592;28;20057;-73
2022/01/18 10:06:53;;;;;;;25.30;10.73;;;;;;;;;;5003649;28;20141;-73
2022/01/18 10:09:20;;;;;;;27.55;12.23;;;;;;;;;;5007392;28;20049;-73
2022/01/18 10:12:12;;;;;;;29.75;13.23;;;;;;;;;;5015391;28;20037;-73
2022/01/18 10:14:41;;;;;;;26.33;11.93;;;;;;;;;;5020400;28;20403;-73
2022/01/18 10:17:10;;;;;;;24.48;12.38;;;;;;;;;;5010688;28;20034;-75
2022/01/18 10:19:48;;;;;;;26.50;12.93;;;;;;;;;;5021802;28;20041;-73
2022/01/18 10:22:23;;;;;;;29.80;12.77;;;;;;;;;;5007650;28;20448;-72
2022/01/18 10:24:49;;;;;;;29.90;13.40;;;;;;;;;;5008334;28;20503;-72
2022/01/18 10:27:15;;;;;;;35.80;17.05;;;;;;;;;;5010039;28;20054;-73
2022/01/18 10:29:46;;;;;;;23.73;12.75;;;;;;;;;;5007979;28;20052;-73
2022/01/18 10:37:22;;;;;;;21.30;10.68;;;;;;;;;;5011188;28;20471;-77
2022/01/18 10:40:07;;;;;;;24.08;11.63;;;;;;;;;;5018982;28;20045;-74
2022/01/18 10:42:52;;;;;;;25.23;10.32;;;;;;;;;;5016587;28;20049;-73
2022/01/18 10:45:35;;;;;;;17.77;9.20;;;;;;;;;;5014414;28;20038;-75
2022/01/18 10:48:04;;;;;;;20.95;9.98;;;;;;;;;;5019112;28;20057;-73
2022/01/18 10:50:33;;;;;;;22.48;10.07;;;;;;;;;;5007663;28;20048;-72
2022/01/18 10:53:15;;;;;;;18.90;8.65;;;;;;;;;;5016699;28;20399;-73
2022/01/18 10:55:42;;;;;;;23.40;10.00;;;;;;;;;;5024110;28;20728;-72
2022/01/18 10:58:14;;;;;;;25.23;8.25;;;;;;;;;;5015174;28;20022;-74
2022/01/18 11:00:40;;;;;;;20.98;9.45;;;;;;;;;;5016673;28;20041;-75
2022/01/18 11:03:07;;;;;;;23.27;9.57;;;;;;;;;;5016697;28;20506;-73
2022/01/18 11:05:36;;;;;;;21.25;8.68;;;;;;;;;;5013558;28;20080;-72
2022/01/18 11:08:04;;;;;;;22.02;9.40;;;;;;;;;;5032659;28;20041;-70
2022/01/18 11:10:42;;;;;;;21.08;8.43;;;;;;;;;;5009686;28;20484;-73
2022/01/18 11:13:11;;;;;;;26.50;9.98;;;;;;;;;;5009430;28;20041;-73
2022/01/18 11:15:45;;;;;;;25.23;9.15;;;;;;;;;;5009926;28;20514;-72
2022/01/18 11:18:18;;;;;;;19.02;9.18;;;;;;;;;;5009892;28;20492;-72
2022/01/18 11:20:48;;;;;;;17.02;7.97;;;;;;;;;;4994136;28;20052;-74
2022/01/18 11:23:15;;;;;;;19.90;8.82;;;;;;;;;;5028647;28;20057;-73
2022/01/18 11:25:41;;;;;;;22.70;8.30;;;;;;;;;;5029327;28;20487;-73
2022/01/18 11:28:09;;;;;;;18.85;7.70;;;;;;;;;;5029499;28;20058;-72
2022/01/18 11:30:39;;;;;;;17.02;8.05;;;;;;;;;;5029743;28;20045;-74
2022/01/18 11:33:09;;;;;;;17.65;8.02;;;;;;;;;;5028560;28;20064;-74
2022/01/18 11:35:48;;;;;;;19.27;7.95;;;;;;;;;;5016244;28;20578;-74
2022/01/18 11:38:27;;;;;;;19.35;7.75;;;;;;;;;;4998018;28;20046;-73
2022/01/18 11:40:56;;;;;;;17.70;7.93;;;;;;;;;;5008931;28;20516;-73
2022/01/18 11:43:42;;;;;;;12.38;5.95;;;;;;;;;;5021543;28;20064;-73
2022/01/18 11:46:22;;;;;;;13.20;6.22;;;;;;;;;;5027653;28;20046;-73
2022/01/18 11:49:09;;;;;;;12.25;5.63;;;;;;;;;;5013012;28;20036;-73
2022/01/18 11:51:43;;;;;;;14.07;5.97;;;;;;;;;;5010013;28;20042;-73
2022/01/18 11:54:38;;;;;;;17.67;7.35;;;;;;;;;;5016723;28;20039;-73
2022/01/18 11:57:24;;;;;;;9.40;4.63;;;;;;;;;;5012378;28;20057;-73
2022/01/18 11:59:53;;;;;;;13.80;5.47;;;;;;;;;;5025960;28;20041;-73
2022/01/18 12:02:39;;;;;;;12.68;5.03;;;;;;;;;;5009426;28;20045;-73
2022/01/18 12:05:13;;;;;;;12.13;5.07;;;;;;;;;;5008645;28;20550;-73
2022/01/18 12:07:44;;;;;;;12.18;4.50;;;;;;;;;;5011912;28;20160;-73
2022/01/18 12:10:32;;;;;;;7.50;3.45;;;;;;;;;;5009319;28;20046;-73
2022/01/18 12:13:10;;;;;;;9.18;3.70;;;;;;;;;;5009533;28;20049;-73
2022/01/18 12:15:38;;;;;;;7.95;2.83;;;;;;;;;;4991303;28;20053;-73
2022/01/18 12:18:14;;;;;;;8.32;3.70;;;;;;;;;;4989788;28;20050;-73
2022/01/18 12:20:44;;;;;;;10.63;3.80;;;;;;;;;;4990996;28;20061;-73
2022/01/18 12:23:44;;;;;;;10.23;3.47;;;;;;;;;;5020608;28;20046;-73
2022/01/18 12:26:29;;;;;;;8.15;3.22;;;;;;;;;;5008135;28;20411;-71
2022/01/18 12:34:32;;;;;;;8.32;3.22;;;;;;;;;;5008282;28;20408;-72
2022/01/18 12:37:01;;;;;;;5.95;3.22;;;;;;;;;;5005693;28;20037;-74
2022/01/18 12:39:27;;;;;;;11.55;3.25;;;;;;;;;;5007214;28;20599;-73
2022/01/18 12:41:55;;;;;;;9.57;3.50;;;;;;;;;;5007085;28;20054;-72
2022/01/18 12:44:22;;;;;;;8.00;2.47;;;;;;;;;;4995644;28;20515;-72
2022/01/18 12:46:58;;;;;;;5.30;1.67;;;;;;;;;;5021960;28;20395;-72
2022/01/18 12:49:25;;;;;;;6.88;2.00;;;;;;;;;;4999031;28;20050;-74
2022/01/18 12:51:59;;;;;;;8.20;2.65;;;;;;;;;;4997307;28;20049;-73
2022/01/18 12:54:36;;;;;;;8.27;2.20;;;;;;;;;;5003521;28;21243;-73
2022/01/18 12:57:16;;;;;;;5.25;1.80;;;;;;;;;;5008019;28;20463;-75
2022/01/18 13:00:07;;;;;;;5.05;1.70;;;;;;;;;;5008466;28;20054;-74
2022/01/18 13:02:33;;;;;;;6.28;2.10;;;;;;;;;;5008218;28;20126;-74
2022/01/18 13:05:07;;;;;;;4.82;2.15;;;;;;;;;;5008000;28;20579;-75
2022/01/18 13:07:47;;;;;;;4.75;2.00;;;;;;;;;;5007177;28;20472;-74
2022/01/18 13:10:13;;;;;;;5.13;2.00;;;;;;;;;;5005645;28;20050;-74
2022/01/18 13:12:39;;;;;;;5.60;2.17;;;;;;;;;;5008098;28;20357;-74
2022/01/18 13:15:08;;;;;;;3.88;1.90;;;;;;;;;;5006873;28;20053;-75
2022/01/18 13:23:49;;;;;;;5.85;2.35;;;;;;;;;;5008732;28;20046;-73
2022/01/18 13:26:14;;;;;;;7.30;2.42;;;;;;;;;;5007055;28;20053;-72
2022/01/18 13:28:41;;;;;;;12.55;5.70;;;;;;;;;;5009342;28;20050;-74
2022/01/18 13:31:20;;;;;;;10.23;3.33;;;;;;;;;;5010095;28;20593;-74
2022/01/18 13:33:58;;;;;;;13.88;3.20;;;;;;;;;;5024170;28;20034;-74
2022/01/18 13:36:26;;;;;;;5.15;2.28;;;;;;;;;;5017697;28;20038;-74
2022/01/18 13:38:52;;;;;;;7.38;2.30;;;;;;;;;;5017580;28;20511;-74
2022/01/18 13:41:19;;;;;;;6.15;2.63;;;;;;;;;;5019740;28;20053;-74
2022/01/18 13:43:47;;;;;;;7.97;2.95;;;;;;;;;;5026810;28;20064;-75
2022/01/18 13:46:26;;;;;;;7.07;2.72;;;;;;;;;;5021602;28;20044;-75
2022/01/18 13:49:11;;;;;;;5.90;2.42;;;;;;;;;;5010744;28;20048;-75
2022/01/18 13:51:37;;;;;;;8.93;4.70;;;;;;;;;;5024311;28;20079;-74
2022/01/18 13:54:06;;;;;;;5.18;2.10;;;;;;;;;;5026958;28;20045;-74
2022/01/18 13:56:33;;;;;;;6.85;2.15;;;;;;;;;;5035161;28;20053;-75
2022/01/18 13:59:06;;;;;;;5.43;2.08;;;;;;;;;;5021937;28;20037;-74
2022/01/18 14:01:42;;;;;;;4.93;2.05;;;;;;;;;;5030175;28;20052;-74
2022/01/18 14:04:17;;;;;;;11.23;2.70;;;;;;;;;;5026027;28;20080;-74
2022/01/18 14:06:44;;;;;;;4.63;2.03;;;;;;;;;;5023240;28;20053;-75
2022/01/18 14:09:12;;;;;;;5.78;1.90;;;;;;;;;;5030340;28;20041;-74
2022/01/18 14:11:47;;;;;;;9.55;2.53;;;;;;;;;;5026297;28;20636;-74
2022/01/18 14:14:21;;;;;;;4.28;1.73;;;;;;;;;;5038730;28;20021;-74
2022/01/18 14:16:50;;;;;;;3.90;2.17;;;;;;;;;;5024461;28;20476;-74
2022/01/18 14:19:45;;;;;;;5.72;2.13;;;;;;;;;;5025609;28;20025;-76
2022/01/18 14:22:13;;;;;;;5.35;1.90;;;;;;;;;;5020355;28;20064;-74
2022/01/18 14:24:41;;;;;;;3.72;1.60;;;;;;;;;;5026480;28;20042;-74
2022/01/18 14:27:29;;;;;;;4.28;1.70;;;;;;;;;;5020255;28;20476;-74
2022/01/18 14:30:00;;;;;;;4.80;1.75;;;;;;;;;;5025322;28;20565;-73
2022/01/18 14:32:26;;;;;;;3.42;1.65;;;;;;;;;;5007674;28;20073;-74
2022/01/18 14:34:59;;;;;;;4.82;1.80;;;;;;;;;;5012372;28;20746;-74
2022/01/18 14:37:47;;;;;;;4.18;2.00;;;;;;;;;;4998950;28;20041;-75
2022/01/18 14:40:18;;;;;;;5.18;2.20;;;;;;;;;;4992749;28;20050;-75
2022/01/18 14:43:11;;;;;;;6.10;2.78;;;;;;;;;;5000256;28;20379;-75
2022/01/18 14:45:41;;;;;;;8.18;2.50;;;;;;;;;;5002207;28;20388;-75
2022/01/18 14:48:10;;;;;;;8.48;2.80;;;;;;;;;;5004123;28;20045;-75
2022/01/18 14:50:38;;;;;;;6.93;3.03;;;;;;;;;;5013369;28;20525;-75
2022/01/18 14:53:06;;;;;;;10.07;3.72;;;;;;;;;;5020209;28;20384;-75
2022/01/18 14:55:32;;;;;;;9.55;3.40;;;;;;;;;;5020894;28;20060;-75
2022/01/18 14:57:58;;;;;;;8.07;3.20;;;;;;;;;;5012033;28;20034;-73
2022/01/18 15:00:26;;;;;;;6.35;3.10;;;;;;;;;;5008202;28;20054;-75
2022/01/18 15:02:53;;;;;;;6.53;2.97;;;;;;;;;;5008902;28;20050;-76
2022/01/18 15:05:19;;;;;;;7.75;3.38;;;;;;;;;;5007856;28;20539;-74
2022/01/18 15:07:46;;;;;;;10.93;3.80;;;;;;;;;;5008219;28;20049;-73
2022/01/18 15:10:13;;;;;;;8.65;3.70;;;;;;;;;;5007362;28;20038;-73
2022/01/18 15:12:41;;;;;;;8.73;3.38;;;;;;;;;;5005537;28;20053;-74
2022/01/18 15:15:08;;;;;;;8.27;3.50;;;;;;;;;;5006822;28;20050;-73
2022/01/18 15:17:34;;;;;;;11.68;3.17;;;;;;;;;;5006857;28;20502;-73
2022/01/18 15:20:00;;;;;;;7.65;3.53;;;;;;;;;;5008964;28;20042;-75
2022/01/18 15:22:27;;;;;;;7.57;3.30;;;;;;;;;;5025162;28;20146;-75
2022/01/18 15:24:53;;;;;;;6.75;3.50;;;;;;;;;;5020917;28;20062;-75
2022/01/18 15:27:20;;;;;;;7.88;3.47;;;;;;;;;;5010266;28;20049;-75
2022/01/18 15:29:48;;;;;;;11.98;4.10;;;;;;;;;;5010138;28;20037;-73
2022/01/18 15:32:15;;;;;;;11.23;3.78;;;;;;;;;;5008933;28;20061;-74
2022/01/18 15:34:42;;;;;;;10.98;3.88;;;;;;;;;;5020093;28;20045;-74
2022/01/18 15:37:08;;;;;;;11.55;4.35;;;;;;;;;;5016477;28;20046;-74
2022/01/18 15:39:35;;;;;;;12.23;4.20;;;;;;;;;;5022298;28;20048;-74
2022/01/18 15:42:02;;;;;;;11.55;3.95;;;;;;;;;;5013760;28;20408;-74
2022/01/18 15:44:28;;;;;;;11.85;5.10;;;;;;;;;;5015669;28;20393;-74
2022/01/18 15:46:54;;;;;;;12.73;4.97;;;;;;;;;;5016004;28;20052;-74
2022/01/18 15:49:23;;;;;;;18.52;7.63;;;;;;;;;;5019912;28;20124;-74
2022/01/18 15:51:50;;;;;;;14.38;5.80;;;;;;;;;;5010695;28;20475;-74
2022/01/18 15:54:16;;;;;;;14.45;6.07;;;;;;;;;;5020548;28;20049;-74
2022/01/18 15:56:43;;;;;;;13.07;6.30;;;;;;;;;;5023414;28;20033;-73
2022/01/18 15:59:10;;;;;;;18.95;6.57;;;;;;;;;;5006334;28;20036;-74
2022/01/18 16:01:38;;;;;;;15.38;6.20;;;;;;;;;;5019845;28;20053;-74
2022/01/18 16:04:04;;;;;;;16.17;6.13;;;;;;;;;;5008891;28;20049;-74
2022/01/18 16:06:30;;;;;;;13.80;5.72;;;;;;;;;;5004972;28;20050;-72